Weather at Cheb Airport

Public forecast

Using degrees Celsius for public forecast. Weather courtesy of forecast.io.

Closest aviation weather report (METAR) to Cheb Airport

Closest report is Karlovy Vary International Airport, 21.0 nm (39.0 km) ENE. Retrieved 2021/07/24 00:00 UTC (58 minutes ago):

LKKV 240000Z VRB01KT CAVOK 14/11 Q1015

Closest aviation forecast (TAF) to Cheb Airport

Closest forecast is Karlovy Vary International Airport, 21.0 nm (39.0 km) ENE. Retrieved 2021-07-24 00:10 UTC (48 minutes ago):

TAF LKKV 232300Z 2400/2506 VRB02KT CAVOK TEMPO 2410/2506 18006KT